FSD - Joe Foss Fld

Pirep is a free, collaborative database of all public and private airports located within the United States. All pilots are welcome to contribute, edit, and improve any airport they have local knowledge about, no registration required.
Uploaded photos will be licensed under a CC BY-SA 4.0 license. Please only upload photos you have the rights to use.
Tags
Public
Car Rental
Golfing
METAR / TAF
Flying Clubs
Edit Tags
Food
Camping
Lodging
Bicycles
Swimming
Fishing
Hot Springs
Museum
Airpark
Upcoming Events
No upcoming events. Is anything happening here soon?
*
*
*

Where exactly on/near the airport is this event taking place?

Is there a webpage with more information for this event?

Who should be contacted for more information?

What is this event all about?

Repeat every
Description
Transient Parking
Last updated: 2023-04-14 08:36:42 CDT
Fuel Location
Last updated: 2023-04-14 08:36:42 CDT
Landing & Tie-down Fees
Last updated: 2023-04-14 08:36:42 CDT
Crew Car Availability
Last updated: 2023-04-14 08:36:42 CDT
Flying Clubs
Last updated: 2024-02-11 01:23:29 CST
WiFi Access
Last updated: 2023-04-14 08:36:42 CDT
Airport Statistics
Location: Sioux Falls, SD
Elevation: 1,430ft
Sectional: Omaha
Activation date: Nov 1938
Fuel: 100LL, A (prices)
Runway 03/21: 9,000ft
Runway 15/33: 8,000ft
Runway 09/27: 3,151ft
Runway H1: 50ft
Access: Open to the public
Current Weather — VFR
  • Weather data is strictly informational and not for flight planning purposes.
  • METAR
    2024-07-21 21:56:00 CDT
    Ceiling Wind Temperature Dewpoint Weather Visbility
    24,000ft 90° @ 5kt 69°F 62°F N/A 10SM
    Clouds: Few @ 14,000ft, Broken @ 24,000ft
    Raw: KFSD 220256Z 09005KT 10SM FEW140 BKN240 21/17 A3011 RMK AO2 SLP190 60000 T02060172 53005 $
  • TAF
    2024-07-21 19:00:00 CDT – 2024-07-21 21:00:00 CDT
    Ceiling Wind Weather Visbility
    Sky clear Variable Thunderstorm in vicinity 6SM
    Clouds: Few @ 4,000ft, Scattered @ 12,000ft
    Raw: KFSD 212345Z 2200/2224 VRB03KT P6SM VCTS FEW040CB SCT120 FM220200 00000KT P6SM SCT050 FM221000 00000KT 2SM BR SCT030 FM221500 VRB03KT P6SM FEW030 SCT120
  • TAF
    2024-07-21 21:00:00 CDT – 2024-07-22 05:00:00 CDT
    Ceiling Wind Weather Visbility
    Sky clear Calm N/A 6SM
    Clouds: Scattered @ 5,000ft
    Raw: KFSD 212345Z 2200/2224 VRB03KT P6SM VCTS FEW040CB SCT120 FM220200 00000KT P6SM SCT050 FM221000 00000KT 2SM BR SCT030 FM221500 VRB03KT P6SM FEW030 SCT120
  • TAF
    2024-07-22 05:00:00 CDT – 2024-07-22 10:00:00 CDT
    Ceiling Wind Weather Visbility
    Sky clear Calm Mist 2SM
    Clouds: Scattered @ 3,000ft
    Raw: KFSD 212345Z 2200/2224 VRB03KT P6SM VCTS FEW040CB SCT120 FM220200 00000KT P6SM SCT050 FM221000 00000KT 2SM BR SCT030 FM221500 VRB03KT P6SM FEW030 SCT120
  • TAF
    2024-07-22 10:00:00 CDT – 2024-07-22 19:00:00 CDT
    Ceiling Wind Weather Visbility
    Sky clear Variable N/A 6SM
    Clouds: Few @ 3,000ft, Scattered @ 12,000ft
    Raw: KFSD 212345Z 2200/2224 VRB03KT P6SM VCTS FEW040CB SCT120 FM220200 00000KT P6SM SCT050 FM221000 00000KT 2SM BR SCT030 FM221500 VRB03KT P6SM FEW030 SCT120
Click/tap to add an annotation marker to the map
Airport Webcams
No webcams added yet.
Direct links to live image URLs will be displayed inline on this page. URLs to separate webpages will be linked to.
URL:
Direct links to live image URLs will be displayed inline on this page. URLs to separate webpages will be linked to.
URL:
Remarks
  • Migratory birds within 25 nm primarily between mar-nov.
  • Waterfowl, birds & deer on & invof arpt.
  • Flt notification svc (adcus) avbl mon-fri 0800-1600 call (605) 338-4384; aft hrs call (605) 373-3523 prior to dep.
  • East ga ramp restricted to 60,000 lbs.
  • Atct has limited vis on twys hotel, golf and juliet btn the east cargo ramp and twy bravo.
Comments
Leave a comment What was your experience like at this airport?